Time;durP1;ratioP1;P1;durP2;ratioP2;P2;SDS_P1;SDS_P2;PMS_P1;PMS_P2;Temp;Humidity;BMP_temperature;BMP_pressure;BME280_temperature;BME280_humidity;BME280_pressure;Samples;Min_cycle;Max_cycle;Signal;HPM_P1;HPM_P2
2022/09/26 00:01:22;;;;;;;123.17;64.00;;;7.30;99.90;;;;;;4379926;28;659155;-85
2022/09/26 00:04:12;;;;;;;114.50;47.07;;;7.30;99.90;;;;;;4348725;28;659159;-85
2022/09/26 00:06:59;;;;;;;92.97;47.10;;;7.20;99.90;;;;;;4351221;28;658702;-85
2022/09/26 00:09:47;;;;;;;94.33;46.73;;;7.30;99.90;;;;;;4349709;28;657644;-85
2022/09/26 00:12:34;;;;;;;78.90;42.47;;;7.30;99.90;;;;;;4375548;28;657726;-85
2022/09/26 00:15:21;;;;;;;87.43;44.17;;;7.20;99.90;;;;;;4360499;28;657123;-84
2022/09/26 00:18:10;;;;;;;101.40;48.80;;;7.40;99.90;;;;;;4369009;28;658348;-84
2022/09/26 00:21:02;;;;;;;80.50;42.80;;;7.40;99.90;;;;;;4346162;28;660026;-86
2022/09/26 00:23:49;;;;;;;80.73;41.07;;;7.30;99.90;;;;;;4375374;28;657871;-86
2022/09/26 00:26:37;;;;;;;62.20;33.30;;;7.20;99.90;;;;;;4360953;28;657584;-86
2022/09/26 00:29:24;;;;;;;54.60;31.02;;;7.30;99.90;;;;;;4383263;28;657913;-86
2022/09/26 00:32:11;;;;;;;55.50;29.90;;;7.30;99.90;;;;;;4358352;28;658367;-86
2022/09/26 00:34:59;;;;;;;55.90;29.63;;;7.30;99.90;;;;;;4377642;28;657961;-86
2022/09/26 00:37:46;;;;;;;56.03;30.07;;;7.30;99.90;;;;;;4347021;28;657708;-86
2022/09/26 00:40:34;;;;;;;50.23;29.70;;;7.20;99.90;;;;;;4379305;28;658201;-86
2022/09/26 00:43:28;;;;;;;52.30;29.23;;;7.20;99.90;;;;;;4356793;28;657707;-86
2022/09/26 00:46:23;;;;;;;51.80;29.07;;;7.30;99.90;;;;;;4336636;28;657915;-87
2022/09/26 00:49:14;;;;;;;44.03;26.20;;;7.30;99.90;;;;;;4339381;28;658013;-87
2022/09/26 00:52:05;;;;;;;48.83;28.33;;;7.40;99.90;;;;;;4356510;28;657599;-86
2022/09/26 00:54:53;;;;;;;57.60;30.53;;;7.40;99.90;;;;;;4358676;28;657481;-86
2022/09/26 00:57:44;;;;;;;49.20;28.30;;;7.50;99.90;;;;;;4371777;28;657580;-87
2022/09/26 01:00:31;;;;;;;56.00;30.13;;;7.50;99.90;;;;;;4364994;28;657077;-87
2022/09/26 01:03:18;;;;;;;53.73;29.10;;;7.60;99.90;;;;;;4378085;28;657725;-86
2022/09/26 01:06:05;;;;;;;56.73;30.20;;;7.60;99.90;;;;;;4354982;28;658008;-87
2022/09/26 01:08:56;;;;;;;54.07;30.70;;;7.70;99.90;;;;;;4375529;28;658706;-86
2022/09/26 01:11:44;;;;;;;51.60;28.80;;;7.70;99.90;;;;;;4352355;28;657969;-86
2022/09/26 01:14:31;;;;;;;52.20;30.60;;;7.80;99.90;;;;;;4351595;28;657479;-86
2022/09/26 01:17:18;;;;;;;47.35;29.42;;;7.80;99.90;;;;;;4378794;28;658169;-86
2022/09/26 01:20:23;;;;;;;53.17;27.87;;;7.80;99.90;;;;;;4357600;28;657935;-86
2022/09/26 01:23:40;;;;;;;47.23;28.20;;;7.90;99.90;;;;;;4352030;28;657648;-86
2022/09/26 01:27:03;;;;;;;47.50;28.53;;;8.00;99.90;;;;;;4357338;28;657926;-86
2022/09/26 01:30:08;;;;;;;49.63;28.03;;;8.00;99.90;;;;;;4352298;28;657798;-86
2022/09/26 01:33:13;;;;;;;54.60;29.97;;;8.00;99.90;;;;;;4362962;28;657709;-86
2022/09/26 01:36:15;;;;;;;51.70;31.40;;;8.00;99.90;;;;;;4354095;28;657684;-85
2022/09/26 01:39:11;;;;;;;49.40;28.40;;;8.00;99.90;;;;;;4360242;28;657812;-86
2022/09/26 01:42:03;;;;;;;51.27;27.27;;;8.10;99.90;;;;;;4356492;28;657752;-86
2022/09/26 01:44:52;;;;;;;49.67;28.57;;;8.10;99.90;;;;;;4364851;28;658024;-86
2022/09/26 01:47:42;;;;;;;44.17;27.50;;;8.10;99.90;;;;;;4381743;28;657332;-86
2022/09/26 01:50:32;;;;;;;47.30;28.43;;;8.00;99.90;;;;;;4355241;28;657420;-86
2022/09/26 01:53:20;;;;;;;44.77;27.07;;;8.10;99.90;;;;;;4348530;28;658376;-86
2022/09/26 01:56:10;;;;;;;48.37;27.23;;;8.10;99.90;;;;;;4361957;28;658659;-87
2022/09/26 01:58:59;;;;;;;53.03;27.37;;;8.10;99.90;;;;;;4358578;28;658654;-86
2022/09/26 02:01:46;;;;;;;44.37;27.70;;;8.10;99.90;;;;;;4350338;28;657726;-86
2022/09/26 02:04:36;;;;;;;53.30;25.70;;;8.10;99.90;;;;;;4379705;28;658213;-86
2022/09/26 02:07:25;;;;;;;41.33;23.87;;;8.20;99.90;;;;;;4354210;28;658384;-85
2022/09/26 02:10:13;;;;;;;46.20;25.40;;;8.20;99.90;;;;;;4357460;28;658651;-87
2022/09/26 02:13:07;;;;;;;48.63;25.17;;;8.20;99.90;;;;;;4353145;28;657831;-86
2022/09/26 02:15:56;;;;;;;49.03;26.17;;;8.20;99.90;;;;;;4352246;28;657485;-86
2022/09/26 02:18:44;;;;;;;46.17;25.77;;;8.20;99.90;;;;;;4352554;28;658767;-86
2022/09/26 02:21:33;;;;;;;40.77;24.13;;;8.30;99.90;;;;;;4364236;28;658513;-86
2022/09/26 02:24:20;;;;;;;44.73;23.47;;;8.30;99.90;;;;;;4359306;28;658027;-85
2022/09/26 02:27:07;;;;;;;45.33;25.77;;;8.30;99.90;;;;;;4375904;28;657592;-85
2022/09/26 02:29:54;;;;;;;51.67;25.80;;;8.30;99.90;;;;;;4378968;28;656972;-85
2022/09/26 02:32:41;;;;;;;45.03;25.80;;;8.30;99.90;;;;;;4356519;28;657791;-86
2022/09/26 02:38:36;;;;;;;43.07;23.07;;;8.40;99.90;;;;;;4350542;28;657918;-86
2022/09/26 02:41:27;;;;;;;43.87;25.13;;;8.30;99.90;;;;;;4348596;28;658190;-86
2022/09/26 02:44:29;;;;;;;46.93;26.20;;;8.20;99.90;;;;;;4368983;28;658079;-86
2022/09/26 02:47:33;;;;;;;45.80;25.43;;;8.30;99.90;;;;;;4345507;28;657535;-85
2022/09/26 02:50:30;;;;;;;50.10;25.73;;;8.40;99.90;;;;;;4357421;28;657991;-86
2022/09/26 02:53:25;;;;;;;45.67;26.23;;;8.40;99.90;;;;;;4352019;28;658106;-86
2022/09/26 02:56:17;;;;;;;43.60;25.43;;;8.50;99.90;;;;;;4351023;28;658283;-86
2022/09/26 02:59:06;;;;;;;44.17;25.33;;;8.40;99.90;;;;;;4344603;28;658090;-85
2022/09/26 03:01:55;;;;;;;46.23;25.43;;;8.40;99.90;;;;;;4349011;28;658365;-86
2022/09/26 03:04:45;;;;;;;45.53;26.90;;;8.40;99.90;;;;;;4345140;28;658160;-85
2022/09/26 03:07:34;;;;;;;46.77;26.23;;;8.50;99.90;;;;;;4353547;28;658538;-85
2022/09/26 03:10:21;;;;;;;45.17;26.27;;;8.50;99.90;;;;;;4348924;28;657079;-85
2022/09/26 03:13:11;;;;;;;47.63;25.03;;;8.40;99.90;;;;;;4380822;28;658391;-85
2022/09/26 03:15:58;;;;;;;41.27;24.43;;;8.50;99.90;;;;;;4345570;28;658925;-85
2022/09/26 03:18:48;;;;;;;39.30;23.30;;;8.40;99.90;;;;;;4357469;28;657504;-85
2022/09/26 03:21:36;;;;;;;37.57;23.77;;;8.40;99.90;;;;;;4346074;28;657738;-85
2022/09/26 03:24:23;;;;;;;36.53;23.23;;;8.50;99.90;;;;;;4373398;28;658244;-85
2022/09/26 03:27:11;;;;;;;39.07;23.77;;;8.60;99.90;;;;;;4352777;28;657976;-84
2022/09/26 03:29:59;;;;;;;41.30;24.87;;;8.60;99.90;;;;;;4379101;28;657439;-85
2022/09/26 03:32:46;;;;;;;39.37;24.47;;;8.60;99.90;;;;;;4349508;28;657804;-85
2022/09/26 03:35:34;;;;;;;47.70;26.43;;;8.70;99.90;;;;;;4369669;28;658389;-85
2022/09/26 03:38:21;;;;;;;43.13;25.85;;;8.70;99.90;;;;;;4343512;28;657655;-85
2022/09/26 03:41:09;;;;;;;44.85;25.23;;;8.70;99.90;;;;;;4372706;28;658805;-85
2022/09/26 03:43:56;;;;;;;41.03;24.63;;;8.70;99.90;;;;;;4343550;28;658340;-85
2022/09/26 03:46:45;;;;;;;44.33;25.10;;;8.70;99.90;;;;;;4373570;28;658196;-84
2022/09/26 03:49:33;;;;;;;39.17;23.70;;;8.70;99.90;;;;;;4346762;28;658366;-84
2022/09/26 03:52:20;;;;;;;47.45;23.25;;;8.70;99.90;;;;;;4355587;28;657599;-85
2022/09/26 03:55:07;;;;;;;41.90;23.80;;;8.80;99.90;;;;;;4372669;28;658027;-85
2022/09/26 03:57:55;;;;;;;38.83;23.10;;;8.90;99.90;;;;;;4360644;28;657646;-85
2022/09/26 04:00:42;;;;;;;39.95;24.70;;;8.90;99.90;;;;;;4374576;28;657430;-85
2022/09/26 04:03:32;;;;;;;41.57;25.10;;;9.00;99.90;;;;;;4381146;28;658571;-85
2022/09/26 04:06:20;;;;;;;41.10;24.87;;;9.00;99.90;;;;;;4368560;28;657781;-85
2022/09/26 04:09:10;;;;;;;50.77;26.97;;;9.10;99.90;;;;;;4373888;28;657586;-86
2022/09/26 04:11:57;;;;;;;37.93;22.97;;;9.10;99.90;;;;;;4349848;28;658178;-85
2022/09/26 04:14:44;;;;;;;40.97;22.93;;;9.10;99.90;;;;;;4367534;28;657464;-85
2022/09/26 04:17:31;;;;;;;50.67;27.37;;;9.20;99.90;;;;;;4351189;28;657460;-85
2022/09/26 04:20:19;;;;;;;47.87;28.40;;;9.20;99.90;;;;;;4371036;28;657966;-85
2022/09/26 04:23:06;;;;;;;49.10;29.87;;;9.30;99.90;;;;;;4345962;28;657539;-85
2022/09/26 04:25:53;;;;;;;48.10;29.40;;;9.30;99.90;;;;;;4376386;28;658089;-86
2022/09/26 04:28:41;;;;;;;56.13;31.17;;;9.40;99.90;;;;;;4353479;28;657907;-86
2022/09/26 04:31:28;;;;;;;43.13;25.53;;;9.40;99.90;;;;;;4373945;28;657644;-86
2022/09/26 04:34:15;;;;;;;45.88;26.45;;;9.40;99.90;;;;;;4356569;28;657641;-86
2022/09/26 04:37:04;;;;;;;36.87;23.27;;;9.40;99.90;;;;;;4359057;28;658169;-86
2022/09/26 04:39:51;;;;;;;39.67;25.10;;;9.40;99.90;;;;;;4356131;28;657997;-86
2022/09/26 04:42:40;;;;;;;50.27;26.83;;;9.50;99.90;;;;;;4362090;28;657840;-85
2022/09/26 04:45:27;;;;;;;52.80;28.23;;;9.50;99.90;;;;;;4350360;28;658384;-86
2022/09/26 04:48:14;;;;;;;50.50;29.37;;;9.50;99.90;;;;;;4383879;28;657591;-86
2022/09/26 04:51:04;;;;;;;45.87;25.50;;;9.50;99.90;;;;;;4345253;28;657512;-85
2022/09/26 04:53:53;;;;;;;47.30;28.77;;;9.60;99.90;;;;;;4349118;28;657356;-87
2022/09/26 04:56:40;;;;;;;49.37;28.63;;;9.60;99.90;;;;;;4343874;28;657619;-85
2022/09/26 04:59:27;;;;;;;42.50;26.20;;;9.70;99.90;;;;;;4379704;28;657617;-85
2022/09/26 05:02:14;;;;;;;53.80;31.37;;;9.80;99.90;;;;;;4371250;28;656972;-84
2022/09/26 05:05:02;;;;;;;55.43;32.37;;;9.80;99.90;;;;;;4352700;28;658097;-85
2022/09/26 05:07:49;;;;;;;53.03;26.73;;;9.90;99.90;;;;;;4369934;28;657799;-85
2022/09/26 05:10:37;;;;;;;35.40;22.77;;;10.00;99.90;;;;;;4355469;28;657540;-85
2022/09/26 05:13:26;;;;;;;37.83;24.77;;;10.00;99.90;;;;;;4365607;28;658374;-85
2022/09/26 05:16:13;;;;;;;49.87;30.37;;;10.00;99.90;;;;;;4374755;28;661864;-85
2022/09/26 05:19:01;;;;;;;49.33;30.70;;;10.00;99.90;;;;;;4348726;28;658597;-85
2022/09/26 05:21:48;;;;;;;49.90;28.97;;;10.10;99.90;;;;;;4369172;28;659204;-85
2022/09/26 05:27:41;;;;;;;44.90;27.30;;;10.10;99.90;;;;;;4362063;28;659076;-86
2022/09/26 05:30:30;;;;;;;45.23;27.37;;;10.20;99.90;;;;;;4371074;28;658665;-85
2022/09/26 05:33:18;;;;;;;47.03;27.50;;;10.20;99.90;;;;;;4352523;28;659665;-86
2022/09/26 05:36:07;;;;;;;62.42;34.13;;;10.30;99.90;;;;;;4351958;28;658907;-85
2022/09/26 05:38:54;;;;;;;56.07;34.63;;;10.40;99.90;;;;;;4374109;28;658607;-86
2022/09/26 05:41:40;;;;;;;39.45;25.10;;;10.40;99.90;;;;;;4349222;28;658857;-86
2022/09/26 05:44:29;;;;;;;46.47;25.00;;;10.40;99.90;;;;;;4380057;28;659586;-86
2022/09/26 05:47:17;;;;;;;45.53;28.53;;;10.40;99.90;;;;;;4353053;28;658669;-85
2022/09/26 05:50:08;;;;;;;51.87;29.53;;;10.50;99.90;;;;;;4361531;28;658229;-85
2022/09/26 05:52:57;;;;;;;51.07;28.83;;;10.50;99.90;;;;;;4355283;28;658670;-85
2022/09/26 05:55:48;;;;;;;53.47;31.23;;;10.60;99.90;;;;;;4367549;28;659120;-85
2022/09/26 05:58:36;;;;;;;46.87;27.70;;;10.60;99.90;;;;;;4329288;28;659519;-85
2022/09/26 06:01:25;;;;;;;46.03;26.77;;;10.80;99.90;;;;;;4376437;28;659046;-85
2022/09/26 06:04:12;;;;;;;43.97;26.27;;;10.90;99.90;;;;;;4349760;28;659388;-85
2022/09/26 06:06:59;;;;;;;49.93;27.90;;;11.00;99.90;;;;;;4373054;28;658721;-85
2022/09/26 06:09:46;;;;;;;57.17;32.50;;;11.00;99.90;;;;;;4355171;28;658622;-84
2022/09/26 06:12:33;;;;;;;60.00;34.77;;;11.00;99.90;;;;;;4376132;28;659182;-84
2022/09/26 06:15:21;;;;;;;52.70;30.33;;;11.10;99.90;;;;;;4351097;28;658413;-84
2022/09/26 06:18:10;;;;;;;47.27;27.40;;;11.10;99.90;;;;;;4371472;28;659081;-84
2022/09/26 06:20:57;;;;;;;48.93;29.83;;;11.20;99.90;;;;;;4342662;28;659842;-84
2022/09/26 06:23:44;;;;;;;57.67;33.77;;;11.20;99.90;;;;;;4374614;28;658437;-84
2022/09/26 06:26:31;;;;;;;58.80;34.43;;;11.20;99.90;;;;;;4346035;28;658558;-84
2022/09/26 06:29:19;;;;;;;53.93;35.27;;;11.20;99.90;;;;;;4370915;28;659260;-84
2022/09/26 06:32:06;;;;;;;59.47;35.17;;;11.30;99.90;;;;;;4349280;28;658601;-84
2022/09/26 06:34:54;;;;;;;55.77;34.87;;;11.30;99.90;;;;;;4376299;28;658467;-85
2022/09/26 06:37:41;;;;;;;55.60;33.93;;;11.30;99.90;;;;;;4345419;28;658876;-84
2022/09/26 06:40:28;;;;;;;48.53;32.27;;;11.40;99.90;;;;;;4370090;28;659483;-84
2022/09/26 06:43:16;;;;;;;52.73;31.40;;;11.50;99.90;;;;;;4346874;28;658576;-85
2022/09/26 06:46:03;;;;;;;50.67;31.27;;;11.50;99.90;;;;;;4377420;28;659636;-84
2022/09/26 06:48:50;;;;;;;51.10;31.67;;;11.60;99.90;;;;;;4348153;28;658963;-84
2022/09/26 06:51:39;;;;;;;50.37;31.30;;;11.60;99.90;;;;;;4372273;28;658780;-84
2022/09/26 06:54:26;;;;;;;54.97;32.13;;;11.70;99.90;;;;;;4343323;28;658703;-84
2022/09/26 06:57:13;;;;;;;47.97;30.33;;;11.70;99.90;;;;;;4377976;28;659213;-84
2022/09/26 07:00:01;;;;;;;46.83;28.13;;;11.70;99.90;;;;;;4352828;28;658959;-84
2022/09/26 07:02:52;;;;;;;38.70;25.20;;;11.70;99.90;;;;;;4371869;28;658846;-84
2022/09/26 07:05:39;;;;;;;41.57;25.97;;;11.80;99.90;;;;;;4353535;28;659436;-84
2022/09/26 07:08:28;;;;;;;39.33;24.73;;;11.80;99.90;;;;;;4348258;28;659068;-84
2022/09/26 07:11:15;;;;;;;35.85;22.95;;;11.90;99.90;;;;;;4360806;28;658969;-84
2022/09/26 07:14:02;;;;;;;36.50;23.37;;;11.90;99.90;;;;;;4373422;28;658493;-84
2022/09/26 07:16:50;;;;;;;27.43;19.97;;;12.00;99.90;;;;;;4371351;28;658473;-84
2022/09/26 07:19:37;;;;;;;30.67;19.90;;;12.00;99.90;;;;;;4348465;28;659814;-84
2022/09/26 07:22:24;;;;;;;29.07;20.53;;;11.90;99.90;;;;;;4364962;28;658767;-84
2022/09/26 07:25:13;;;;;;;36.53;21.87;;;11.90;99.90;;;;;;4352269;28;658709;-84
2022/09/26 07:28:00;;;;;;;30.67;21.67;;;11.90;99.90;;;;;;4350943;28;659158;-85
2022/09/26 07:30:48;;;;;;;29.00;21.27;;;12.00;99.90;;;;;;4366327;28;659528;-84
2022/09/26 07:33:35;;;;;;;29.67;19.87;;;12.10;99.90;;;;;;4343939;28;659023;-85
2022/09/26 07:36:22;;;;;;;29.05;20.02;;;12.30;99.90;;;;;;4375413;28;658146;-85
2022/09/26 07:39:09;;;;;;;27.83;18.50;;;12.30;99.90;;;;;;4372596;28;658384;-85
2022/09/26 07:41:59;;;;;;;50.67;32.93;;;12.40;99.90;;;;;;4337623;28;658732;-85
2022/09/26 07:44:46;;;;;;;57.77;34.10;;;12.40;99.90;;;;;;4352756;28;658830;-85
2022/09/26 07:50:38;;;;;;;45.57;28.67;;;12.50;99.90;;;;;;4337036;28;658912;-85
2022/09/26 07:53:25;;;;;;;45.23;27.70;;;12.60;99.90;;;;;;4348327;28;658095;-85
2022/09/26 07:56:13;;;;;;;44.67;28.97;;;12.60;99.90;;;;;;4373431;28;659528;-85
2022/09/26 07:59:04;;;;;;;41.67;26.45;;;12.60;99.90;;;;;;4349251;28;659410;-85
2022/09/26 08:01:53;;;;;;;40.60;25.50;;;12.60;99.90;;;;;;4356585;28;658891;-85
2022/09/26 08:04:40;;;;;;;40.03;24.60;;;12.70;99.90;;;;;;4353652;28;658784;-85
2022/09/26 08:07:28;;;;;;;33.80;21.47;;;12.80;99.90;;;;;;4373357;28;658704;-85
2022/09/26 08:10:18;;;;;;;34.63;21.60;;;12.80;99.90;;;;;;4369796;28;658586;-85
2022/09/26 08:13:05;;;;;;;31.80;20.77;;;12.80;99.90;;;;;;4353164;28;658908;-85
2022/09/26 08:15:54;;;;;;;26.37;18.73;;;12.70;99.90;;;;;;4375815;28;659274;-85
2022/09/26 08:18:41;;;;;;;27.77;17.40;;;12.70;99.90;;;;;;4354645;28;658627;-84
2022/09/26 08:21:28;;;;;;;25.77;16.98;;;12.40;99.90;;;;;;4374185;28;659109;-85
2022/09/26 08:24:15;;;;;;;24.60;16.73;;;12.40;99.90;;;;;;4351441;28;658571;-85
2022/09/26 08:27:03;;;;;;;27.20;16.20;;;12.50;99.90;;;;;;4369448;28;659874;-84
2022/09/26 08:29:50;;;;;;;20.13;14.77;;;12.40;99.90;;;;;;4359975;28;659875;-84
2022/09/26 08:32:39;;;;;;;19.70;14.20;;;12.50;99.90;;;;;;4381220;28;659132;-85
2022/09/26 08:35:26;;;;;;;25.77;17.60;;;12.60;99.90;;;;;;4352035;28;659009;-85
2022/09/26 08:38:14;;;;;;;24.87;17.80;;;12.70;99.90;;;;;;4374392;28;659921;-85
2022/09/26 08:41:04;;;;;;;23.00;14.90;;;12.70;99.90;;;;;;4348942;28;658895;-85
2022/09/26 08:43:56;;;;;;;23.00;13.87;;;12.70;99.90;;;;;;4347098;28;658562;-85
2022/09/26 08:46:49;;;;;;;21.25;15.32;;;12.80;99.90;;;;;;4353828;28;659180;-85
2022/09/26 08:49:50;;;;;;;21.53;14.77;;;12.90;99.90;;;;;;4356600;28;658801;-85
2022/09/26 08:52:38;;;;;;;20.77;15.33;;;13.00;99.90;;;;;;4341141;28;659212;-85
2022/09/26 08:55:26;;;;;;;21.63;15.13;;;13.00;99.90;;;;;;4359084;28;659001;-84
2022/09/26 08:58:16;;;;;;;22.33;14.77;;;13.00;99.90;;;;;;4374911;28;658864;-85
2022/09/26 09:01:04;;;;;;;24.10;15.17;;;13.00;99.90;;;;;;4341585;28;658881;-85
2022/09/26 09:03:53;;;;;;;19.53;15.20;;;13.10;99.90;;;;;;4336132;28;658471;-85
2022/09/26 09:06:42;;;;;;;21.90;14.97;;;13.10;99.90;;;;;;4362265;28;658464;-85
2022/09/26 09:09:29;;;;;;;21.70;16.70;;;13.20;99.90;;;;;;4366893;28;659660;-85
2022/09/26 09:12:19;;;;;;;31.03;18.67;;;13.30;99.90;;;;;;4347257;28;658708;-85
2022/09/26 09:15:16;;;;;;;25.27;19.17;;;13.20;99.90;;;;;;4353539;28;659028;-85
2022/09/26 09:18:11;;;;;;;24.73;17.00;;;13.20;99.90;;;;;;4345891;28;658582;-85
2022/09/26 09:21:00;;;;;;;22.23;16.30;;;13.00;99.90;;;;;;4346466;28;658553;-85
2022/09/26 09:23:59;;;;;;;24.80;18.23;;;13.00;99.90;;;;;;4354310;28;659599;-85
2022/09/26 09:26:53;;;;;;;30.73;18.30;;;13.00;99.90;;;;;;4354959;28;658677;-85
2022/09/26 09:30:02;;;;;;;34.23;20.00;;;13.10;99.90;;;;;;4340218;28;659544;-85
2022/09/26 09:32:52;;;;;;;29.30;20.20;;;13.20;99.90;;;;;;4351164;28;658800;-84
2022/09/26 09:35:42;;;;;;;29.03;19.40;;;13.30;99.90;;;;;;4362126;28;658495;-85
2022/09/26 09:38:30;;;;;;;28.47;19.33;;;13.40;99.90;;;;;;4368718;28;659386;-85
2022/09/26 09:41:19;;;;;;;28.17;19.23;;;13.40;99.90;;;;;;4352457;28;659592;-85
2022/09/26 09:44:12;;;;;;;28.67;16.43;;;13.50;99.90;;;;;;4340267;28;658932;-85
2022/09/26 09:47:00;;;;;;;27.00;18.10;;;13.50;99.90;;;;;;4348324;28;658256;-84
2022/09/26 09:49:47;;;;;;;26.57;19.03;;;13.60;99.90;;;;;;4344104;28;658873;-84
2022/09/26 09:52:46;;;;;;;32.53;20.57;;;13.70;99.90;;;;;;4375051;28;658792;-84
2022/09/26 09:55:37;;;;;;;26.87;18.20;;;13.70;99.90;;;;;;4358092;28;659895;-85
2022/09/26 09:58:34;;;;;;;26.23;19.30;;;13.90;99.90;;;;;;4341816;28;658486;-84
2022/09/26 10:01:24;;;;;;;32.53;22.43;;;13.80;99.90;;;;;;4344540;28;659514;-85
2022/09/26 10:04:19;;;;;;;36.90;22.43;;;14.00;99.90;;;;;;4350976;28;659687;-85
2022/09/26 10:07:06;;;;;;;32.03;22.50;;;14.20;99.90;;;;;;4357461;28;658657;-84
2022/09/26 10:09:54;;;;;;;31.53;21.37;;;14.60;99.90;;;;;;4374344;28;658924;-85
2022/09/26 10:12:42;;;;;;;27.77;19.03;;;14.90;99.90;;;;;;4354901;28;658481;-84
2022/09/26 10:15:30;;;;;;;27.00;17.57;;;15.10;99.90;;;;;;4374198;28;658750;-84
2022/09/26 10:18:20;;;;;;;26.50;16.73;;;15.10;99.90;;;;;;4354526;28;659173;-84
2022/09/26 10:21:10;;;;;;;23.20;15.10;;;15.30;99.90;;;;;;4346727;28;658835;-84
2022/09/26 10:23:58;;;;;;;18.87;14.20;;;15.60;99.90;;;;;;4347867;28;659051;-84
2022/09/26 10:26:48;;;;;;;21.07;13.70;;;16.00;99.90;;;;;;4347264;28;658668;-84
2022/09/26 10:29:37;;;;;;;20.13;13.40;;;16.10;99.90;;;;;;4359667;28;659114;-84
2022/09/26 10:32:25;;;;;;;16.93;13.23;;;16.00;99.90;;;;;;4373118;28;659121;-85
2022/09/26 10:35:18;;;;;;;17.97;13.33;;;16.60;99.90;;;;;;4337450;28;659132;-84
2022/09/26 10:38:06;;;;;;;17.83;12.40;;;16.50;99.90;;;;;;4330382;28;659291;-84
2022/09/26 10:40:54;;;;;;;17.53;12.47;;;16.80;99.90;;;;;;4353049;28;659074;-84
2022/09/26 10:43:41;;;;;;;16.30;11.03;;;17.00;99.90;;;;;;4344083;28;658954;-85
2022/09/26 10:46:28;;;;;;;13.57;10.60;;;16.80;99.90;;;;;;4370336;28;659977;-84
2022/09/26 10:49:17;;;;;;;16.70;11.83;;;16.80;99.90;;;;;;4340292;28;658844;-84
2022/09/26 10:52:08;;;;;;;16.23;11.77;;;16.90;99.90;;;;;;4361286;28;658819;-85
2022/09/26 10:54:58;;;;;;;15.43;10.93;;;17.00;99.90;;;;;;4355223;28;659198;-84
2022/09/26 10:57:46;;;;;;;18.40;11.40;;;17.00;99.90;;;;;;4343044;28;658763;-84
2022/09/26 11:00:37;;;;;;;16.63;11.50;;;17.00;99.90;;;;;;4368741;28;659412;-84
2022/09/26 11:03:32;;;;;;;15.77;11.10;;;16.80;99.90;;;;;;4357526;28;658629;-84
2022/09/26 11:06:29;;;;;;;16.60;11.53;;;16.50;99.90;;;;;;4343867;28;658886;-84
2022/09/26 11:09:19;;;;;;;18.77;12.37;;;16.50;99.90;;;;;;4338470;28;658657;-83
2022/09/26 11:12:24;;;;;;;16.40;11.47;;;16.50;99.90;;;;;;4347231;28;658955;-85
2022/09/26 11:15:12;;;;;;;15.00;10.80;;;16.50;99.90;;;;;;4344130;28;659004;-84
2022/09/26 11:17:59;;;;;;;15.67;10.90;;;16.20;99.90;;;;;;4359496;28;658335;-84
2022/09/26 11:20:49;;;;;;;16.57;11.47;;;16.40;99.90;;;;;;4352272;28;659296;-84
2022/09/26 11:23:39;;;;;;;14.27;10.80;;;15.80;99.90;;;;;;4356263;28;659193;-84
2022/09/26 11:26:31;;;;;;;12.60;8.63;;;16.60;99.90;;;;;;4349510;28;658644;-84
2022/09/26 11:29:19;;;;;;;17.10;9.87;;;17.30;99.90;;;;;;4358712;28;657987;-84
2022/09/26 11:32:09;;;;;;;12.97;10.60;;;17.30;99.90;;;;;;4355253;28;657583;-84
2022/09/26 11:35:01;;;;;;;12.37;9.07;;;17.30;99.90;;;;;;4345220;28;658616;-85
2022/09/26 11:38:04;;;;;;;12.37;9.03;;;18.00;99.90;;;;;;4336504;28;658109;-84
2022/09/26 11:41:04;;;;;;;12.30;8.40;;;18.70;99.90;;;;;;4348772;28;657442;-84
2022/09/26 11:43:53;;;;;;;12.07;7.67;;;18.80;99.90;;;;;;4345142;28;657748;-85
2022/09/26 11:46:45;;;;;;;13.77;8.43;;;18.80;99.90;;;;;;4352263;28;657986;-84
2022/09/26 11:49:48;;;;;;;11.53;8.00;;;18.20;99.90;;;;;;4351658;28;658174;-84
2022/09/26 11:52:44;;;;;;;12.83;8.53;;;18.20;99.90;;;;;;4357217;28;657738;-84
2022/09/26 11:55:36;;;;;;;11.10;7.23;;;18.40;99.90;;;;;;4350303;28;658160;-83
2022/09/26 11:58:27;;;;;;;11.23;7.77;;;18.20;99.90;;;;;;4347830;28;658057;-84
2022/09/26 12:01:19;;;;;;;11.37;8.00;;;17.50;99.90;;;;;;4343878;28;657479;-84
2022/09/26 12:04:48;;;;;;;12.07;8.60;;;17.10;99.90;;;;;;4348388;28;657719;-83
2022/09/26 12:07:38;;;;;;;12.67;8.10;;;17.20;99.90;;;;;;4321180;28;658411;-83
2022/09/26 12:10:31;;;;;;;13.23;8.20;;;17.40;99.90;;;;;;4337239;28;657997;-84
2022/09/26 12:13:33;;;;;;;13.00;8.97;;;17.20;99.90;;;;;;4334991;28;657408;-84
2022/09/26 12:16:23;;;;;;;12.10;7.90;;;17.00;99.90;;;;;;4316525;28;658042;-83
2022/09/26 12:19:16;;;;;;;11.77;8.10;;;17.20;99.90;;;;;;4342980;28;658034;-84
2022/09/26 12:25:24;;;;;;;10.87;7.47;;;17.40;99.90;;;;;;4348288;28;657905;-82
2022/09/26 12:28:19;;;;;;;12.33;8.63;;;17.70;99.90;;;;;;4338682;28;658032;-82
2022/09/26 12:31:09;;;;;;;10.13;7.33;;;17.70;99.90;;;;;;4340430;28;657513;-82
2022/09/26 12:34:12;;;;;;;9.87;7.07;;;17.30;99.90;;;;;;4344257;28;657677;-82
2022/09/26 12:37:05;;;;;;;8.63;6.20;;;17.30;99.90;;;;;;4335592;28;656349;-83
2022/09/26 12:40:08;;;;;;;8.03;5.83;;;18.40;99.90;;;;;;4347433;28;656598;-82
2022/09/26 12:43:21;;;;;;;8.90;6.47;;;19.10;99.90;;;;;;4348268;28;656355;-81
2022/09/26 12:46:37;;;;;;;7.33;4.60;;;19.30;99.90;;;;;;4357904;28;656788;-83
2022/09/26 12:49:34;;;;;;;5.87;3.90;;;18.60;99.90;;;;;;4343096;28;656750;-82
2022/09/26 12:52:27;;;;;;;4.00;3.37;;;18.60;99.90;;;;;;4354675;28;656393;-82
2022/09/26 12:55:19;;;;;;;4.43;3.30;;;19.60;99.90;;;;;;4352222;28;656595;-81
2022/09/26 12:58:17;;;;;;;4.73;3.80;;;19.60;99.90;;;;;;4358279;28;656638;-82
2022/09/26 13:01:10;;;;;;;11.80;4.80;;;19.50;99.90;;;;;;4357481;28;656676;-82
2022/09/26 13:04:20;;;;;;;7.73;5.20;;;19.20;99.90;;;;;;4352738;28;658577;-81
2022/09/26 13:07:14;;;;;;;6.67;5.57;;;18.90;99.90;;;;;;4327772;28;656464;-82
2022/09/26 13:10:17;;;;;;;8.63;6.00;;;18.60;99.90;;;;;;4346969;28;656693;-82
2022/09/26 13:13:29;;;;;;;7.83;5.70;;;18.30;99.90;;;;;;4354740;28;656708;-82
2022/09/26 13:16:23;;;;;;;9.37;5.63;;;18.00;99.90;;;;;;4346702;28;656432;-83
2022/09/26 13:19:16;;;;;;;8.80;6.43;;;17.90;99.90;;;;;;4349183;28;656855;-82
2022/09/26 13:22:06;;;;;;;8.93;6.00;;;17.90;99.90;;;;;;4351795;28;657221;-82
2022/09/26 13:24:56;;;;;;;9.47;6.40;;;17.90;99.90;;;;;;4338330;28;656690;-83
2022/09/26 13:27:45;;;;;;;8.13;6.17;;;17.50;99.90;;;;;;4358035;28;656328;-81
2022/09/26 13:30:34;;;;;;;7.57;5.67;;;17.60;99.90;;;;;;4346021;28;656734;-81
2022/09/26 13:33:24;;;;;;;6.90;5.47;;;17.60;99.90;;;;;;4351426;28;656868;-81
2022/09/26 13:36:13;;;;;;;8.27;5.97;;;17.50;99.90;;;;;;4352188;28;657150;-81
2022/09/26 13:39:02;;;;;;;7.83;5.80;;;17.30;99.90;;;;;;4343738;28;656473;-81
2022/09/26 13:41:51;;;;;;;8.23;5.90;;;17.80;99.90;;;;;;4373428;28;656041;-82
2022/09/26 13:44:48;;;;;;;9.03;5.77;;;17.20;99.90;;;;;;4345077;28;657054;-82
2022/09/26 13:47:39;;;;;;;7.10;5.63;;;16.90;99.90;;;;;;4351615;28;656523;-81
2022/09/26 13:50:30;;;;;;;9.30;6.13;;;17.20;99.90;;;;;;4327948;28;656635;-80
2022/09/26 13:53:22;;;;;;;10.00;5.60;;;16.80;99.90;;;;;;4335021;28;656782;-80
2022/09/26 13:56:43;;;;;;;7.63;5.75;;;17.10;99.90;;;;;;4330345;28;658041;-82
2022/09/26 13:59:34;;;;;;;6.73;5.33;;;17.50;99.90;;;;;;4345040;28;656832;-81
2022/09/26 14:02:24;;;;;;;7.07;5.47;;;19.00;99.90;;;;;;4341622;28;656655;-81
2022/09/26 14:05:44;;;;;;;6.67;4.70;;;18.60;99.90;;;;;;4341670;28;656383;-82
2022/09/26 14:11:45;;;;;;;6.20;4.83;;;18.50;99.90;;;;;;4350126;28;656625;-83
2022/09/26 14:14:39;;;;;;;6.87;5.03;;;18.10;99.90;;;;;;4343691;28;657775;-82
2022/09/26 14:18:00;;;;;;;6.40;5.07;;;18.00;99.90;;;;;;4339607;28;656868;-82
2022/09/26 14:21:13;;;;;;;9.00;4.73;;;17.70;99.90;;;;;;4346951;28;656360;-82
2022/09/26 14:24:33;;;;;;;9.73;5.27;;;17.40;99.90;;;;;;4355878;28;656468;-82
2022/09/26 14:27:42;;;;;;;6.47;4.83;;;17.10;99.90;;;;;;4337632;28;656434;-82
2022/09/26 14:30:29;;;;;;;7.67;5.13;;;17.30;99.90;;;;;;4356205;28;656732;-81
2022/09/26 14:33:17;;;;;;;8.00;5.40;;;17.40;99.90;;;;;;4344592;28;656849;-81
2022/09/26 14:36:33;;;;;;;8.17;5.97;;;17.40;99.90;;;;;;4348584;28;657072;-83
2022/09/26 14:39:32;;;;;;;7.00;5.17;;;17.10;99.90;;;;;;4313474;28;656254;-82